![]() |
EMODnet Physics ERDDAP
Easier access to scientific data |
log in|
Brought to you by EMODnet Physics |
| Dataset Title: | NDBC - Collection of dew point temperature (DEWT) TimeSeries - IN SITU MultiPointTimeSeriesObservation
|
| Institution: | NDBC (Dataset ID: TS_DEWT_NDBC) |
| Information: | Summary
| License
| FGDC
| ISO 19115
| Metadata
| Background
| Subset
| Data Access Form
| Make a graph
|
| Name | Last modified | Size | Description | |
|---|---|---|---|---|
| Parent Directory | - | - | ||
| TKEA2_TS_DEWT_012011.nc | 16-Dec-2024 03:56 | 1474275 | ||
| TKEA2_TS_DEWT_012012.nc | 16-Dec-2024 04:06 | 1467519 | ||
| TKEA2_TS_DEWT_012013.nc | 16-Dec-2024 04:14 | 1471139 | ||
| TKEA2_TS_DEWT_012014.nc | 16-Dec-2024 04:18 | 1475125 | ||
| TKEA2_TS_DEWT_012015.nc | 16-Dec-2024 04:19 | 1459928 | ||
| TKEA2_TS_DEWT_012016.nc | 19-Jan-2026 04:12 | 1466336 | ||
| TKEA2_TS_DEWT_012018.nc | 19-Jan-2026 04:14 | 1472789 | ||
| TKEA2_TS_DEWT_012019.nc | 19-Jan-2026 04:21 | 1468897 | ||
| TKEA2_TS_DEWT_012020.nc | 19-Jan-2026 04:27 | 1471810 | ||
| TKEA2_TS_DEWT_012021.nc | 19-Jan-2026 04:33 | 1467358 | ||
| TKEA2_TS_DEWT_012022.nc | 19-Jan-2026 04:38 | 1476404 | ||
| TKEA2_TS_DEWT_012023.nc | 19-Jan-2026 04:43 | 1469921 | ||
| TKEA2_TS_DEWT_012024.nc | 19-Jan-2026 04:48 | 1476363 | ||
| TKEA2_TS_DEWT_012025.nc | 19-Jan-2026 04:54 | 1471627 | ||
| TKEA2_TS_DEWT_012026.nc | 02-Feb-2026 15:03 | 1476695 | ||
| TKEA2_TS_DEWT_022011.nc | 16-Dec-2024 03:56 | 1470805 | ||
| TKEA2_TS_DEWT_022012.nc | 16-Dec-2024 04:07 | 1470486 | ||
| TKEA2_TS_DEWT_022013.nc | 16-Dec-2024 04:15 | 1466493 | ||
| TKEA2_TS_DEWT_022014.nc | 16-Dec-2024 04:18 | 1473573 | ||
| TKEA2_TS_DEWT_022015.nc | 16-Dec-2024 04:20 | 1154488 | ||
| TKEA2_TS_DEWT_022018.nc | 19-Jan-2026 04:15 | 1474766 | ||
| TKEA2_TS_DEWT_022019.nc | 19-Jan-2026 04:21 | 1161685 | ||
| TKEA2_TS_DEWT_022020.nc | 19-Jan-2026 04:28 | 1476391 | ||
| TKEA2_TS_DEWT_022021.nc | 19-Jan-2026 04:33 | 1149865 | ||
| TKEA2_TS_DEWT_022022.nc | 19-Jan-2026 04:38 | 1474434 | ||
| TKEA2_TS_DEWT_022023.nc | 19-Jan-2026 04:44 | 1472946 | ||
| TKEA2_TS_DEWT_022024.nc | 19-Jan-2026 04:49 | 1459329 | ||
| TKEA2_TS_DEWT_022025.nc | 19-Jan-2026 04:55 | 1476813 | ||
| TKEA2_TS_DEWT_022026.nc | 01-Mar-2026 15:59 | 429110 | ||
| TKEA2_TS_DEWT_032010.nc | 16-Dec-2024 03:53 | 1626310 | ||
| TKEA2_TS_DEWT_032011.nc | 16-Dec-2024 03:57 | 1625281 | ||
| TKEA2_TS_DEWT_032012.nc | 16-Dec-2024 04:07 | 1627858 | ||
| TKEA2_TS_DEWT_032013.nc | 16-Dec-2024 04:15 | 1625812 | ||
| TKEA2_TS_DEWT_032015.nc | 16-Dec-2024 04:20 | 1040853 | ||
| TKEA2_TS_DEWT_032018.nc | 19-Jan-2026 04:15 | 436239 | ||
| TKEA2_TS_DEWT_032019.nc | 19-Jan-2026 04:22 | 434860 | ||
| TKEA2_TS_DEWT_032020.nc | 19-Jan-2026 04:28 | 429937 | ||
| TKEA2_TS_DEWT_032021.nc | 19-Jan-2026 04:33 | 438340 | ||
| TKEA2_TS_DEWT_032022.nc | 19-Jan-2026 04:39 | 438113 | ||
| TKEA2_TS_DEWT_032023.nc | 19-Jan-2026 04:44 | 432464 | ||
| TKEA2_TS_DEWT_032024.nc | 19-Jan-2026 04:49 | 432456 | ||
| TKEA2_TS_DEWT_032025.nc | 19-Jan-2026 04:55 | 438667 | ||
| TKEA2_TS_DEWT_032026.nc | 23-Mar-2026 16:36 | 428832 | ||
| TKEA2_TS_DEWT_042010.nc | 16-Dec-2024 03:53 | 437287 | ||
| TKEA2_TS_DEWT_042011.nc | 16-Dec-2024 03:58 | 438965 | ||
| TKEA2_TS_DEWT_042012.nc | 16-Dec-2024 04:08 | 436668 | ||
| TKEA2_TS_DEWT_042013.nc | 16-Dec-2024 04:15 | 438906 | ||
| TKEA2_TS_DEWT_042015.nc | 16-Dec-2024 04:21 | 438503 | ||
| TKEA2_TS_DEWT_042018.nc | 19-Jan-2026 04:16 | 435923 | ||
| TKEA2_TS_DEWT_042019.nc | 19-Jan-2026 04:23 | 440273 | ||
| TKEA2_TS_DEWT_042020.nc | 19-Jan-2026 04:29 | 429711 | ||
| TKEA2_TS_DEWT_042021.nc | 19-Jan-2026 04:34 | 440075 | ||
| TKEA2_TS_DEWT_042022.nc | 19-Jan-2026 04:39 | 426975 | ||
| TKEA2_TS_DEWT_042023.nc | 19-Jan-2026 04:45 | 439786 | ||
| TKEA2_TS_DEWT_042024.nc | 19-Jan-2026 04:50 | 423557 | ||
| TKEA2_TS_DEWT_042025.nc | 19-Jan-2026 04:56 | 432534 | ||
| TKEA2_TS_DEWT_052010.nc | 16-Dec-2024 03:53 | 425946 | ||
| TKEA2_TS_DEWT_052011.nc | 16-Dec-2024 03:59 | 435609 | ||
| TKEA2_TS_DEWT_052012.nc | 16-Dec-2024 04:08 | 438395 | ||
| TKEA2_TS_DEWT_052013.nc | 16-Dec-2024 04:16 | 429453 | ||
| TKEA2_TS_DEWT_052015.nc | 16-Dec-2024 04:21 | 432865 | ||
| TKEA2_TS_DEWT_052018.nc | 19-Jan-2026 04:16 | 581294 | ||
| TKEA2_TS_DEWT_052019.nc | 19-Jan-2026 04:23 | 450028 | ||
| TKEA2_TS_DEWT_052020.nc | 19-Jan-2026 04:29 | 450691 | ||
| TKEA2_TS_DEWT_052021.nc | 19-Jan-2026 04:34 | 450961 | ||
| TKEA2_TS_DEWT_052022.nc | 19-Jan-2026 04:39 | 450580 | ||
| TKEA2_TS_DEWT_052023.nc | 19-Jan-2026 04:45 | 450436 | ||
| TKEA2_TS_DEWT_052024.nc | 19-Jan-2026 04:50 | 451336 | ||
| TKEA2_TS_DEWT_052025.nc | 19-Jan-2026 04:56 | 431051 | ||
| TKEA2_TS_DEWT_062009.nc | 16-Dec-2024 03:51 | 448154 | ||
| TKEA2_TS_DEWT_062010.nc | 16-Dec-2024 03:54 | 451365 | ||
| TKEA2_TS_DEWT_062011.nc | 16-Dec-2024 04:00 | 430280 | ||
| TKEA2_TS_DEWT_062012.nc | 16-Dec-2024 04:09 | 451353 | ||
| TKEA2_TS_DEWT_062013.nc | 16-Dec-2024 04:16 | 442017 | ||
| TKEA2_TS_DEWT_062015.nc | 16-Dec-2024 04:21 | 447153 | ||
| TKEA2_TS_DEWT_062018.nc | 19-Jan-2026 04:17 | 445360 | ||
| TKEA2_TS_DEWT_062019.nc | 19-Jan-2026 04:24 | 448229 | ||
| TKEA2_TS_DEWT_062020.nc | 19-Jan-2026 04:29 | 447561 | ||
| TKEA2_TS_DEWT_062021.nc | 19-Jan-2026 04:35 | 449181 | ||
| TKEA2_TS_DEWT_062022.nc | 19-Jan-2026 04:40 | 447497 | ||
| TKEA2_TS_DEWT_062023.nc | 19-Jan-2026 04:45 | 448340 | ||
| TKEA2_TS_DEWT_062024.nc | 19-Jan-2026 04:51 | 447979 | ||
| TKEA2_TS_DEWT_062025.nc | 19-Jan-2026 04:57 | 447518 | ||
| TKEA2_TS_DEWT_072009.nc | 16-Dec-2024 03:51 | 437511 | ||
| TKEA2_TS_DEWT_072010.nc | 16-Dec-2024 03:54 | 432786 | ||
| TKEA2_TS_DEWT_072011.nc | 16-Dec-2024 04:01 | 450390 | ||
| TKEA2_TS_DEWT_072012.nc | 16-Dec-2024 04:10 | 451842 | ||
| TKEA2_TS_DEWT_072013.nc | 16-Dec-2024 04:16 | 450092 | ||
| TKEA2_TS_DEWT_072015.nc | 16-Dec-2024 04:22 | 450469 | ||
| TKEA2_TS_DEWT_072018.nc | 19-Jan-2026 04:17 | 451022 | ||
| TKEA2_TS_DEWT_072019.nc | 19-Jan-2026 04:25 | 451401 | ||
| TKEA2_TS_DEWT_072020.nc | 19-Jan-2026 04:30 | 450216 | ||
| TKEA2_TS_DEWT_072021.nc | 19-Jan-2026 04:35 | 450211 | ||
| TKEA2_TS_DEWT_072022.nc | 19-Jan-2026 04:40 | 436465 | ||
| TKEA2_TS_DEWT_072023.nc | 19-Jan-2026 04:46 | 451778 | ||
| TKEA2_TS_DEWT_072024.nc | 19-Jan-2026 04:51 | 451398 | ||
| TKEA2_TS_DEWT_072025.nc | 19-Jan-2026 04:57 | 451102 | ||
| TKEA2_TS_DEWT_082009.nc | 16-Dec-2024 03:51 | 450295 | ||
| TKEA2_TS_DEWT_082010.nc | 16-Dec-2024 03:54 | 450157 | ||
| TKEA2_TS_DEWT_082011.nc | 16-Dec-2024 04:02 | 449748 | ||
| TKEA2_TS_DEWT_082012.nc | 16-Dec-2024 04:11 | 449174 | ||
| TKEA2_TS_DEWT_082013.nc | 16-Dec-2024 04:16 | 449740 | ||
| TKEA2_TS_DEWT_082015.nc | 16-Dec-2024 04:23 | 449978 | ||
| TKEA2_TS_DEWT_082018.nc | 19-Jan-2026 04:18 | 449560 | ||
| TKEA2_TS_DEWT_082019.nc | 19-Jan-2026 04:25 | 448752 | ||
| TKEA2_TS_DEWT_082020.nc | 19-Jan-2026 04:30 | 449108 | ||
| TKEA2_TS_DEWT_082021.nc | 19-Jan-2026 04:36 | 448690 | ||
| TKEA2_TS_DEWT_082022.nc | 19-Jan-2026 04:41 | 450579 | ||
| TKEA2_TS_DEWT_082023.nc | 19-Jan-2026 04:46 | 436452 | ||
| TKEA2_TS_DEWT_082024.nc | 19-Jan-2026 04:52 | 448901 | ||
| TKEA2_TS_DEWT_082025.nc | 19-Jan-2026 04:58 | 450432 | ||
| TKEA2_TS_DEWT_092009.nc | 16-Dec-2024 03:52 | 449681 | ||
| TKEA2_TS_DEWT_092010.nc | 16-Dec-2024 03:55 | 450494 | ||
| TKEA2_TS_DEWT_092011.nc | 16-Dec-2024 04:03 | 449935 | ||
| TKEA2_TS_DEWT_092012.nc | 16-Dec-2024 04:12 | 450026 | ||
| TKEA2_TS_DEWT_092013.nc | 16-Dec-2024 04:17 | 450248 | ||
| TKEA2_TS_DEWT_092015.nc | 16-Dec-2024 04:24 | 450429 | ||
| TKEA2_TS_DEWT_092018.nc | 19-Jan-2026 04:18 | 449593 | ||
| TKEA2_TS_DEWT_092019.nc | 19-Jan-2026 04:26 | 450164 | ||
| TKEA2_TS_DEWT_092020.nc | 19-Jan-2026 04:31 | 450563 | ||
| TKEA2_TS_DEWT_092021.nc | 19-Jan-2026 04:36 | 449950 | ||
| TKEA2_TS_DEWT_092022.nc | 19-Jan-2026 04:41 | 450437 | ||
| TKEA2_TS_DEWT_092023.nc | 19-Jan-2026 04:47 | 449975 | ||
| TKEA2_TS_DEWT_092024.nc | 19-Jan-2026 04:52 | 449930 | ||
| TKEA2_TS_DEWT_092025.nc | 19-Jan-2026 04:58 | 449825 | ||
| TKEA2_TS_DEWT_102009.nc | 16-Dec-2024 03:52 | 450305 | ||
| TKEA2_TS_DEWT_102010.nc | 16-Dec-2024 03:55 | 449155 | ||
| TKEA2_TS_DEWT_102011.nc | 16-Dec-2024 04:04 | 449048 | ||
| TKEA2_TS_DEWT_102012.nc | 16-Dec-2024 04:13 | 449679 | ||
| TKEA2_TS_DEWT_102013.nc | 16-Dec-2024 04:17 | 450113 | ||
| TKEA2_TS_DEWT_102014.nc | 16-Dec-2024 04:18 | 448720 | ||
| TKEA2_TS_DEWT_102015.nc | 16-Dec-2024 04:26 | 448674 | ||
| TKEA2_TS_DEWT_102018.nc | 19-Jan-2026 04:19 | 449175 | ||
| TKEA2_TS_DEWT_102019.nc | 19-Jan-2026 04:26 | 439138 | ||
| TKEA2_TS_DEWT_102020.nc | 19-Jan-2026 04:31 | 448884 | ||
| TKEA2_TS_DEWT_102021.nc | 19-Jan-2026 04:36 | 441709 | ||
| TKEA2_TS_DEWT_102022.nc | 19-Jan-2026 04:42 | 451273 | ||
| TKEA2_TS_DEWT_102023.nc | 19-Jan-2026 04:47 | 449188 | ||
| TKEA2_TS_DEWT_102024.nc | 19-Jan-2026 04:53 | 450586 | ||
| TKEA2_TS_DEWT_102025.nc | 19-Jan-2026 04:58 | 450383 | ||
| TKEA2_TS_DEWT_112009.nc | 16-Dec-2024 03:52 | 450006 | ||
| TKEA2_TS_DEWT_112010.nc | 16-Dec-2024 03:55 | 450905 | ||
| TKEA2_TS_DEWT_112011.nc | 16-Dec-2024 04:05 | 449901 | ||
| TKEA2_TS_DEWT_112012.nc | 16-Dec-2024 04:14 | 430497 | ||
| TKEA2_TS_DEWT_112013.nc | 16-Dec-2024 04:17 | 449994 | ||
| TKEA2_TS_DEWT_112014.nc | 16-Dec-2024 04:19 | 450696 | ||
| TKEA2_TS_DEWT_112015.nc | 16-Dec-2024 04:27 | 450594 | ||
| TKEA2_TS_DEWT_112018.nc | 19-Jan-2026 04:19 | 450894 | ||
| TKEA2_TS_DEWT_112019.nc | 19-Jan-2026 04:27 | 450747 | ||
| TKEA2_TS_DEWT_112020.nc | 19-Jan-2026 04:32 | 449508 | ||
| TKEA2_TS_DEWT_112021.nc | 19-Jan-2026 04:37 | 449419 | ||
| TKEA2_TS_DEWT_112022.nc | 19-Jan-2026 04:42 | 449600 | ||
| TKEA2_TS_DEWT_112023.nc | 19-Jan-2026 04:47 | 449855 | ||
| TKEA2_TS_DEWT_112024.nc | 19-Jan-2026 04:53 | 450827 | ||
| TKEA2_TS_DEWT_112025.nc | 19-Jan-2026 04:59 | 451175 | ||
| TKEA2_TS_DEWT_122010.nc | 16-Dec-2024 03:56 | 450356 | ||
| TKEA2_TS_DEWT_122011.nc | 16-Dec-2024 04:06 | 434657 | ||
| TKEA2_TS_DEWT_122012.nc | 16-Dec-2024 04:14 | 450480 | ||
| TKEA2_TS_DEWT_122013.nc | 16-Dec-2024 04:18 | 449911 | ||
| TKEA2_TS_DEWT_122017.nc | 19-Jan-2026 04:13 | 450678 | ||
| TKEA2_TS_DEWT_122018.nc | 19-Jan-2026 04:20 | 449794 | ||
| TKEA2_TS_DEWT_122019.nc | 19-Jan-2026 04:27 | 448793 | ||
| TKEA2_TS_DEWT_122020.nc | 19-Jan-2026 04:32 | 449369 | ||
| TKEA2_TS_DEWT_122021.nc | 19-Jan-2026 04:37 | 448798 | ||
| TKEA2_TS_DEWT_122022.nc | 19-Jan-2026 04:43 | 450184 | ||
| TKEA2_TS_DEWT_122023.nc | 19-Jan-2026 04:48 | 450120 | ||
| TKEA2_TS_DEWT_122024.nc | 19-Jan-2026 04:54 | 449560 | ||
| TKEA2_TS_DEWT_122025.nc | 19-Jan-2026 04:59 | 449171 | ||